Aérodrome :
LOGIN :

S'inscrire | Disclaimer

   EN    FR    IT 

 










Légende :    VFR   VFR Marginal   IFR   IFR Intensif   IFR Très Intensif
Visi : 
Plafond : 
>= 8 km
>= 3000ft
5 à 8 km
1000 à 3000 ft
1500m à 5 km
500 à 1000 ft
800 à 1500m
200 à 500 ft
< 800m
< 200 ft
Symboles :   Orages  Brouillard  Fortes neiges  Fortes précipitations  Vent > 20 kt
SIGMETs :   Divers  Orages  Givrage  Turbulence  Onde Orograph.  Cendres Volcan.






- Altitude de l'aérodrome : 100 ft


EBDT - Schaffen

DERNIER METAR :
  • 270555Z 35003KT 9999 FEW170 13/10 Q1034 BLU BLU

METARs EXPIRÉS :
  • 270543Z VRB02KT 9999 FEW170 13/09 Q1034 BLU BLU
  • 270525Z 34004KT 9999 FEW160 BKN220 12/10 Q1034 BLU
  • 270455Z AUTO 32003KT 9999 FEW110/// SCT140/// BKN220/// 12/09 Q1034 BLU
  • 270425Z AUTO 32003KT 9000 FEW110/// SCT130/// BKN140/// 11/09 Q1034 BLU
  • 270355Z AUTO 33005KT 9999 SCT100/// BKN120/// BKN220/// 11/09 Q1033 BLU
  • 270325Z AUTO 34005KT 9999 SCT100/// BKN120/// 11/09 Q1033 BLU

TAF TAF EBDT
Valide du 26 à 19h jusqu'au 27 à 07h UTC


261541Z 2619/2707 01004KT 9999 FEW060
BECMG 2701/2703 VRB03KT
TEMPO 2703/2705 5000 MIFG



MET'MAP, la Météo Aéronautique d'un coup d'oeil ! - Copyright ORBIFLY Décembre 2007 - Disclaimer

ORBIFLY MET'MAP TEAM :

Programmation & Développement : Alexandra Zaïnal
Sur une idée originale de : Baudouin d'Aumeries
Assistance à la programmation : Marc-Olivier Méhu
Soutien technique & logistique : Manuel Goepfert

Contact : metmap@orbifly.com




SOURCES & CREDITS :

   NOAA